sensor_id;sensor_type;location;lat;lon;timestamp;temperature;humidity
74869;DHT22;63419;42.262;12.210;2023-06-04T00:01:37;15.00;99.90
74869;DHT22;63419;42.262;12.210;2023-06-04T00:04:04;15.10;99.90
74869;DHT22;63419;42.262;12.210;2023-06-04T00:06:31;15.10;99.90
74869;DHT22;63419;42.262;12.210;2023-06-04T00:08:58;15.10;99.90
74869;DHT22;63419;42.262;12.210;2023-06-04T00:11:25;15.10;99.90
74869;DHT22;63419;42.262;12.210;2023-06-04T00:13:53;14.70;99.90
74869;DHT22;63419;42.262;12.210;2023-06-04T00:16:20;14.20;99.90
74869;DHT22;63419;42.262;12.210;2023-06-04T00:18:47;14.00;99.90
74869;DHT22;63419;42.262;12.210;2023-06-04T00:21:14;13.80;99.90
74869;DHT22;63419;42.262;12.210;2023-06-04T00:23:42;13.80;99.90
74869;DHT22;63419;42.262;12.210;2023-06-04T00:26:09;13.70;99.90
74869;DHT22;63419;42.262;12.210;2023-06-04T00:28:36;13.50;99.90
74869;DHT22;63419;42.262;12.210;2023-06-04T00:31:05;13.40;99.90
74869;DHT22;63419;42.262;12.210;2023-06-04T00:33:36;13.30;99.90
74869;DHT22;63419;42.262;12.210;2023-06-04T00:36:03;13.20;99.90
74869;DHT22;63419;42.262;12.210;2023-06-04T00:38:30;13.30;99.90
74869;DHT22;63419;42.262;12.210;2023-06-04T00:40:57;13.30;99.90
74869;DHT22;63419;42.262;12.210;2023-06-04T00:43:25;13.40;99.90
74869;DHT22;63419;42.262;12.210;2023-06-04T00:45:55;13.50;99.90
74869;DHT22;63419;42.262;12.210;2023-06-04T00:48:23;13.60;99.90
74869;DHT22;63419;42.262;12.210;2023-06-04T00:50:51;13.60;99.90
74869;DHT22;63419;42.262;12.210;2023-06-04T00:53:18;13.70;99.90
74869;DHT22;63419;42.262;12.210;2023-06-04T00:55:45;13.90;99.90
74869;DHT22;63419;42.262;12.210;2023-06-04T00:58:12;14.00;99.90
74869;DHT22;63419;42.262;12.210;2023-06-04T01:00:43;14.20;99.90
74869;DHT22;63419;42.262;12.210;2023-06-04T01:03:14;14.30;99.90
74869;DHT22;63419;42.262;12.210;2023-06-04T01:05:53;14.40;99.90
74869;DHT22;63419;42.262;12.210;2023-06-04T01:08:24;14.40;99.90
74869;DHT22;63419;42.262;12.210;2023-06-04T01:10:53;14.40;99.90
74869;DHT22;63419;42.262;12.210;2023-06-04T01:13:21;14.50;99.90
74869;DHT22;63419;42.262;12.210;2023-06-04T01:15:48;14.60;99.90
74869;DHT22;63419;42.262;12.210;2023-06-04T01:18:19;14.50;99.90
74869;DHT22;63419;42.262;12.210;2023-06-04T01:20:59;14.60;99.90
74869;DHT22;63419;42.262;12.210;2023-06-04T01:23:48;14.50;99.90
74869;DHT22;63419;42.262;12.210;2023-06-04T01:26:30;14.50;99.90
74869;DHT22;63419;42.262;12.210;2023-06-04T01:28:58;14.50;99.90
74869;DHT22;63419;42.262;12.210;2023-06-04T01:31:28;14.40;99.90
74869;DHT22;63419;42.262;12.210;2023-06-04T01:34:00;14.40;99.90
74869;DHT22;63419;42.262;12.210;2023-06-04T01:36:27;14.50;99.90
74869;DHT22;63419;42.262;12.210;2023-06-04T01:38:54;14.40;99.90
74869;DHT22;63419;42.262;12.210;2023-06-04T01:41:21;14.40;99.90
74869;DHT22;63419;42.262;12.210;2023-06-04T01:43:49;14.30;99.90
74869;DHT22;63419;42.262;12.210;2023-06-04T01:46:16;14.30;99.90
74869;DHT22;63419;42.262;12.210;2023-06-04T01:48:43;14.20;99.90
74869;DHT22;63419;42.262;12.210;2023-06-04T01:51:11;14.20;99.90
74869;DHT22;63419;42.262;12.210;2023-06-04T01:53:38;14.00;99.90
74869;DHT22;63419;42.262;12.210;2023-06-04T01:56:05;13.90;99.90
74869;DHT22;63419;42.262;12.210;2023-06-04T01:58:32;13.90;99.90
74869;DHT22;63419;42.262;12.210;2023-06-04T02:01:00;13.90;99.90
74869;DHT22;63419;42.262;12.210;2023-06-04T02:03:30;13.90;99.90
74869;DHT22;63419;42.262;12.210;2023-06-04T02:06:04;14.10;99.90
74869;DHT22;63419;42.262;12.210;2023-06-04T02:08:35;14.10;99.90
74869;DHT22;63419;42.262;12.210;2023-06-04T02:11:02;14.10;99.90
74869;DHT22;63419;42.262;12.210;2023-06-04T02:13:29;14.10;99.90
74869;DHT22;63419;42.262;12.210;2023-06-04T02:15:56;14.10;99.90
74869;DHT22;63419;42.262;12.210;2023-06-04T02:18:24;14.10;99.90
74869;DHT22;63419;42.262;12.210;2023-06-04T02:20:51;14.20;99.90
74869;DHT22;63419;42.262;12.210;2023-06-04T02:23:20;14.10;99.90
74869;DHT22;63419;42.262;12.210;2023-06-04T02:25:48;14.10;99.90
74869;DHT22;63419;42.262;12.210;2023-06-04T02:28:17;14.00;99.90
74869;DHT22;63419;42.262;12.210;2023-06-04T02:30:45;14.20;99.90
74869;DHT22;63419;42.262;12.210;2023-06-04T02:33:13;14.30;99.90
74869;DHT22;63419;42.262;12.210;2023-06-04T02:35:41;14.40;99.90
74869;DHT22;63419;42.262;12.210;2023-06-04T02:38:08;14.40;99.90
74869;DHT22;63419;42.262;12.210;2023-06-04T02:40:36;14.40;99.90
74869;DHT22;63419;42.262;12.210;2023-06-04T02:43:03;14.30;99.90
74869;DHT22;63419;42.262;12.210;2023-06-04T02:45:30;14.40;99.90
74869;DHT22;63419;42.262;12.210;2023-06-04T02:47:57;14.40;99.90
74869;DHT22;63419;42.262;12.210;2023-06-04T02:50:24;14.50;99.90
74869;DHT22;63419;42.262;12.210;2023-06-04T02:52:52;14.40;99.90
74869;DHT22;63419;42.262;12.210;2023-06-04T02:55:19;14.40;99.90
74869;DHT22;63419;42.262;12.210;2023-06-04T02:57:46;14.30;99.90
74869;DHT22;63419;42.262;12.210;2023-06-04T03:00:15;14.30;99.90
74869;DHT22;63419;42.262;12.210;2023-06-04T03:02:47;14.30;99.90
74869;DHT22;63419;42.262;12.210;2023-06-04T03:05:15;14.30;99.90
74869;DHT22;63419;42.262;12.210;2023-06-04T03:07:46;14.30;99.90
74869;DHT22;63419;42.262;12.210;2023-06-04T03:10:15;14.30;99.90
74869;DHT22;63419;42.262;12.210;2023-06-04T03:12:43;14.20;99.90
74869;DHT22;63419;42.262;12.210;2023-06-04T03:15:11;14.20;99.90
74869;DHT22;63419;42.262;12.210;2023-06-04T03:17:38;14.20;99.90
74869;DHT22;63419;42.262;12.210;2023-06-04T03:20:06;14.30;99.90
74869;DHT22;63419;42.262;12.210;2023-06-04T03:22:35;14.30;99.90
74869;DHT22;63419;42.262;12.210;2023-06-04T03:25:03;14.30;99.90
74869;DHT22;63419;42.262;12.210;2023-06-04T03:27:32;14.20;99.90
74869;DHT22;63419;42.262;12.210;2023-06-04T03:29:59;14.20;99.90
74869;DHT22;63419;42.262;12.210;2023-06-04T03:32:27;14.20;99.90
74869;DHT22;63419;42.262;12.210;2023-06-04T03:34:54;14.30;99.90
74869;DHT22;63419;42.262;12.210;2023-06-04T03:37:21;14.30;99.90
74869;DHT22;63419;42.262;12.210;2023-06-04T03:39:49;14.20;99.90
74869;DHT22;63419;42.262;12.210;2023-06-04T03:42:16;14.20;99.90
74869;DHT22;63419;42.262;12.210;2023-06-04T03:44:43;14.20;99.90
74869;DHT22;63419;42.262;12.210;2023-06-04T03:47:10;14.20;99.90
74869;DHT22;63419;42.262;12.210;2023-06-04T03:49:38;14.20;99.90
74869;DHT22;63419;42.262;12.210;2023-06-04T03:52:05;14.20;99.90
74869;DHT22;63419;42.262;12.210;2023-06-04T03:54:32;14.20;99.90
74869;DHT22;63419;42.262;12.210;2023-06-04T03:56:59;14.20;99.90
74869;DHT22;63419;42.262;12.210;2023-06-04T03:59:27;14.30;99.90
74869;DHT22;63419;42.262;12.210;2023-06-04T04:01:54;13.90;99.90
74869;DHT22;63419;42.262;12.210;2023-06-04T04:04:21;13.50;99.90
74869;DHT22;63419;42.262;12.210;2023-06-04T04:06:48;13.50;99.90
74869;DHT22;63419;42.262;12.210;2023-06-04T04:09:16;13.60;99.90
74869;DHT22;63419;42.262;12.210;2023-06-04T04:11:43;13.70;99.90
74869;DHT22;63419;42.262;12.210;2023-06-04T04:14:10;13.80;99.90
74869;DHT22;63419;42.262;12.210;2023-06-04T04:16:38;13.90;99.90
74869;DHT22;63419;42.262;12.210;2023-06-04T04:19:05;14.00;99.90
74869;DHT22;63419;42.262;12.210;2023-06-04T04:21:36;14.10;99.90
74869;DHT22;63419;42.262;12.210;2023-06-04T04:24:04;14.20;99.90
74869;DHT22;63419;42.262;12.210;2023-06-04T04:26:31;14.20;99.90
74869;DHT22;63419;42.262;12.210;2023-06-04T04:28:59;14.40;99.90
74869;DHT22;63419;42.262;12.210;2023-06-04T04:31:27;14.50;99.90
74869;DHT22;63419;42.262;12.210;2023-06-04T04:33:57;14.30;99.90
74869;DHT22;63419;42.262;12.210;2023-06-04T04:36:24;14.40;99.90
74869;DHT22;63419;42.262;12.210;2023-06-04T04:38:53;14.40;99.90
74869;DHT22;63419;42.262;12.210;2023-06-04T04:41:25;14.50;99.90
74869;DHT22;63419;42.262;12.210;2023-06-04T04:43:53;14.60;99.90
74869;DHT22;63419;42.262;12.210;2023-06-04T04:46:21;14.70;99.90
74869;DHT22;63419;42.262;12.210;2023-06-04T04:48:48;14.90;99.90
74869;DHT22;63419;42.262;12.210;2023-06-04T04:51:15;15.00;99.90
74869;DHT22;63419;42.262;12.210;2023-06-04T04:53:42;15.20;99.90
74869;DHT22;63419;42.262;12.210;2023-06-04T04:56:09;15.30;99.90
74869;DHT22;63419;42.262;12.210;2023-06-04T04:58:37;15.40;99.90
74869;DHT22;63419;42.262;12.210;2023-06-04T05:01:04;15.50;99.90
74869;DHT22;63419;42.262;12.210;2023-06-04T05:03:32;15.50;99.90
74869;DHT22;63419;42.262;12.210;2023-06-04T05:05:59;15.70;99.90
74869;DHT22;63419;42.262;12.210;2023-06-04T05:08:26;15.60;99.90
74869;DHT22;63419;42.262;12.210;2023-06-04T05:10:54;15.20;99.90
74869;DHT22;63419;42.262;12.210;2023-06-04T05:13:21;15.00;99.90
74869;DHT22;63419;42.262;12.210;2023-06-04T05:15:49;14.80;99.90
74869;DHT22;63419;42.262;12.210;2023-06-04T05:18:20;14.80;99.90
74869;DHT22;63419;42.262;12.210;2023-06-04T05:20:55;14.90;99.90
74869;DHT22;63419;42.262;12.210;2023-06-04T05:23:22;14.90;99.90
74869;DHT22;63419;42.262;12.210;2023-06-04T05:25:50;15.00;99.90
74869;DHT22;63419;42.262;12.210;2023-06-04T05:28:18;14.90;99.90
74869;DHT22;63419;42.262;12.210;2023-06-04T05:30:47;15.00;99.90
74869;DHT22;63419;42.262;12.210;2023-06-04T05:33:15;15.10;99.90
74869;DHT22;63419;42.262;12.210;2023-06-04T05:35:46;15.30;99.90
74869;DHT22;63419;42.262;12.210;2023-06-04T05:38:15;15.30;99.90
74869;DHT22;63419;42.262;12.210;2023-06-04T05:40:45;15.30;99.90
74869;DHT22;63419;42.262;12.210;2023-06-04T05:45:59;15.80;99.90
74869;DHT22;63419;42.262;12.210;2023-06-04T05:48:26;16.00;99.90
74869;DHT22;63419;42.262;12.210;2023-06-04T05:50:54;15.80;99.90
74869;DHT22;63419;42.262;12.210;2023-06-04T05:53:21;15.80;99.90
74869;DHT22;63419;42.262;12.210;2023-06-04T05:55:49;15.80;99.90
74869;DHT22;63419;42.262;12.210;2023-06-04T05:58:16;15.90;99.90
74869;DHT22;63419;42.262;12.210;2023-06-04T06:00:43;15.90;99.90
74869;DHT22;63419;42.262;12.210;2023-06-04T06:03:11;16.00;99.90
74869;DHT22;63419;42.262;12.210;2023-06-04T06:05:39;16.20;99.90
74869;DHT22;63419;42.262;12.210;2023-06-04T06:08:06;16.40;99.90
74869;DHT22;63419;42.262;12.210;2023-06-04T06:10:34;16.80;99.90
74869;DHT22;63419;42.262;12.210;2023-06-04T06:13:01;17.20;99.90
74869;DHT22;63419;42.262;12.210;2023-06-04T06:15:29;17.50;99.90
74869;DHT22;63419;42.262;12.210;2023-06-04T06:17:56;17.70;99.90
74869;DHT22;63419;42.262;12.210;2023-06-04T06:20:23;17.60;99.90
74869;DHT22;63419;42.262;12.210;2023-06-04T06:22:51;17.80;99.90
74869;DHT22;63419;42.262;12.210;2023-06-04T06:25:18;17.70;99.90
74869;DHT22;63419;42.262;12.210;2023-06-04T06:27:46;17.70;99.90
74869;DHT22;63419;42.262;12.210;2023-06-04T06:30:15;17.40;99.90
74869;DHT22;63419;42.262;12.210;2023-06-04T06:32:42;17.50;99.90
74869;DHT22;63419;42.262;12.210;2023-06-04T06:35:09;17.90;99.90
74869;DHT22;63419;42.262;12.210;2023-06-04T06:37:37;18.40;99.90
74869;DHT22;63419;42.262;12.210;2023-06-04T06:40:09;18.80;99.90
74869;DHT22;63419;42.262;12.210;2023-06-04T06:42:36;18.70;99.90
74869;DHT22;63419;42.262;12.210;2023-06-04T06:45:04;18.80;99.90
74869;DHT22;63419;42.262;12.210;2023-06-04T06:47:32;19.60;99.90
74869;DHT22;63419;42.262;12.210;2023-06-04T06:49:59;20.00;99.90
74869;DHT22;63419;42.262;12.210;2023-06-04T06:52:27;20.00;99.90
74869;DHT22;63419;42.262;12.210;2023-06-04T06:54:54;20.00;99.90
74869;DHT22;63419;42.262;12.210;2023-06-04T06:57:21;19.90;99.90
74869;DHT22;63419;42.262;12.210;2023-06-04T06:59:48;20.50;99.90
74869;DHT22;63419;42.262;12.210;2023-06-04T07:02:19;20.00;99.90
74869;DHT22;63419;42.262;12.210;2023-06-04T07:04:46;19.70;99.90
74869;DHT22;63419;42.262;12.210;2023-06-04T07:07:14;19.60;99.90
74869;DHT22;63419;42.262;12.210;2023-06-04T07:09:44;19.30;99.90
74869;DHT22;63419;42.262;12.210;2023-06-04T07:12:11;18.80;99.90
74869;DHT22;63419;42.262;12.210;2023-06-04T07:14:38;18.70;99.90
74869;DHT22;63419;42.262;12.210;2023-06-04T07:17:06;18.80;99.90
74869;DHT22;63419;42.262;12.210;2023-06-04T07:19:33;18.80;99.90
74869;DHT22;63419;42.262;12.210;2023-06-04T07:22:00;18.40;99.90
74869;DHT22;63419;42.262;12.210;2023-06-04T07:24:27;18.70;99.90
74869;DHT22;63419;42.262;12.210;2023-06-04T07:26:55;18.50;99.90
74869;DHT22;63419;42.262;12.210;2023-06-04T07:29:22;18.40;99.90
74869;DHT22;63419;42.262;12.210;2023-06-04T07:31:50;18.50;99.90
74869;DHT22;63419;42.262;12.210;2023-06-04T07:34:18;18.90;99.90
74869;DHT22;63419;42.262;12.210;2023-06-04T07:36:45;19.30;99.90
74869;DHT22;63419;42.262;12.210;2023-06-04T07:39:12;19.50;99.90
74869;DHT22;63419;42.262;12.210;2023-06-04T07:41:40;19.00;99.90
74869;DHT22;63419;42.262;12.210;2023-06-04T07:44:07;19.20;99.90
74869;DHT22;63419;42.262;12.210;2023-06-04T07:46:34;19.70;99.90
74869;DHT22;63419;42.262;12.210;2023-06-04T07:49:02;20.20;99.90
74869;DHT22;63419;42.262;12.210;2023-06-04T07:51:29;20.40;99.90
74869;DHT22;63419;42.262;12.210;2023-06-04T07:53:56;20.70;99.90
74869;DHT22;63419;42.262;12.210;2023-06-04T07:56:24;20.70;99.90
74869;DHT22;63419;42.262;12.210;2023-06-04T07:58:52;21.20;99.90
74869;DHT22;63419;42.262;12.210;2023-06-04T08:01:19;21.60;99.90
74869;DHT22;63419;42.262;12.210;2023-06-04T08:03:48;21.60;99.90
74869;DHT22;63419;42.262;12.210;2023-06-04T08:06:16;21.90;99.90
74869;DHT22;63419;42.262;12.210;2023-06-04T08:08:43;22.20;99.90
74869;DHT22;63419;42.262;12.210;2023-06-04T08:11:15;21.50;99.90
74869;DHT22;63419;42.262;12.210;2023-06-04T08:13:42;21.40;99.90
74869;DHT22;63419;42.262;12.210;2023-06-04T08:16:10;21.30;99.90
74869;DHT22;63419;42.262;12.210;2023-06-04T08:18:38;21.30;99.90
74869;DHT22;63419;42.262;12.210;2023-06-04T08:21:10;21.90;99.90
74869;DHT22;63419;42.262;12.210;2023-06-04T08:23:38;22.40;99.90
74869;DHT22;63419;42.262;12.210;2023-06-04T08:26:06;23.00;99.90
74869;DHT22;63419;42.262;12.210;2023-06-04T08:28:34;23.10;99.90
74869;DHT22;63419;42.262;12.210;2023-06-04T08:31:02;22.60;99.90
74869;DHT22;63419;42.262;12.210;2023-06-04T08:33:29;21.80;99.90
74869;DHT22;63419;42.262;12.210;2023-06-04T08:35:56;22.30;99.90
74869;DHT22;63419;42.262;12.210;2023-06-04T08:38:23;21.80;99.90
74869;DHT22;63419;42.262;12.210;2023-06-04T08:40:52;21.80;99.90
74869;DHT22;63419;42.262;12.210;2023-06-04T08:43:20;22.50;99.90
74869;DHT22;63419;42.262;12.210;2023-06-04T08:45:49;22.70;99.90
74869;DHT22;63419;42.262;12.210;2023-06-04T08:48:18;23.10;99.90
74869;DHT22;63419;42.262;12.210;2023-06-04T08:50:49;23.80;99.90
74869;DHT22;63419;42.262;12.210;2023-06-04T08:53:17;24.10;99.90
74869;DHT22;63419;42.262;12.210;2023-06-04T08:55:45;24.50;99.90
74869;DHT22;63419;42.262;12.210;2023-06-04T08:58:13;24.80;99.90
74869;DHT22;63419;42.262;12.210;2023-06-04T09:00:41;25.40;99.90
74869;DHT22;63419;42.262;12.210;2023-06-04T09:03:09;25.20;99.90
74869;DHT22;63419;42.262;12.210;2023-06-04T09:05:39;24.50;99.90
74869;DHT22;63419;42.262;12.210;2023-06-04T09:08:08;22.60;99.90
74869;DHT22;63419;42.262;12.210;2023-06-04T09:10:38;21.30;99.90
74869;DHT22;63419;42.262;12.210;2023-06-04T09:13:07;21.60;99.90
74869;DHT22;63419;42.262;12.210;2023-06-04T09:15:35;20.90;99.90
74869;DHT22;63419;42.262;12.210;2023-06-04T09:18:02;21.20;99.90
74869;DHT22;63419;42.262;12.210;2023-06-04T09:20:29;22.00;99.90
74869;DHT22;63419;42.262;12.210;2023-06-04T09:22:58;22.10;99.90
74869;DHT22;63419;42.262;12.210;2023-06-04T09:25:27;23.00;99.90
74869;DHT22;63419;42.262;12.210;2023-06-04T09:27:56;23.40;99.90
74869;DHT22;63419;42.262;12.210;2023-06-04T09:30:24;23.50;99.90
74869;DHT22;63419;42.262;12.210;2023-06-04T09:32:52;23.90;99.90
74869;DHT22;63419;42.262;12.210;2023-06-04T09:35:20;24.50;99.90
74869;DHT22;63419;42.262;12.210;2023-06-04T09:37:55;24.40;99.90
74869;DHT22;63419;42.262;12.210;2023-06-04T09:40:35;25.10;99.90
74869;DHT22;63419;42.262;12.210;2023-06-04T09:43:03;25.90;99.90
74869;DHT22;63419;42.262;12.210;2023-06-04T09:45:34;24.70;99.90
74869;DHT22;63419;42.262;12.210;2023-06-04T09:48:03;24.30;99.90
74869;DHT22;63419;42.262;12.210;2023-06-04T09:50:35;25.10;99.90
74869;DHT22;63419;42.262;12.210;2023-06-04T09:53:17;26.70;99.90
74869;DHT22;63419;42.262;12.210;2023-06-04T09:55:44;25.30;99.90
74869;DHT22;63419;42.262;12.210;2023-06-04T09:58:11;25.00;99.90
74869;DHT22;63419;42.262;12.210;2023-06-04T10:00:40;22.20;99.90
74869;DHT22;63419;42.262;12.210;2023-06-04T10:03:12;21.70;99.90
74869;DHT22;63419;42.262;12.210;2023-06-04T10:05:42;21.70;99.90
74869;DHT22;63419;42.262;12.210;2023-06-04T10:08:11;21.90;99.90
74869;DHT22;63419;42.262;12.210;2023-06-04T10:10:40;21.80;99.90
74869;DHT22;63419;42.262;12.210;2023-06-04T10:13:16;21.50;99.90
74869;DHT22;63419;42.262;12.210;2023-06-04T10:15:45;22.00;99.90
74869;DHT22;63419;42.262;12.210;2023-06-04T10:18:16;21.90;99.90
74869;DHT22;63419;42.262;12.210;2023-06-04T10:20:43;23.60;99.90
74869;DHT22;63419;42.262;12.210;2023-06-04T10:23:11;23.20;99.90
74869;DHT22;63419;42.262;12.210;2023-06-04T10:25:39;23.00;99.90
74869;DHT22;63419;42.262;12.210;2023-06-04T10:28:08;24.80;99.90
74869;DHT22;63419;42.262;12.210;2023-06-04T10:30:35;26.80;99.90
74869;DHT22;63419;42.262;12.210;2023-06-04T10:33:03;26.60;99.90
74869;DHT22;63419;42.262;12.210;2023-06-04T10:35:34;26.30;99.90
74869;DHT22;63419;42.262;12.210;2023-06-04T10:38:10;24.80;99.90
74869;DHT22;63419;42.262;12.210;2023-06-04T10:40:38;22.40;99.90
74869;DHT22;63419;42.262;12.210;2023-06-04T10:43:09;22.20;99.90
74869;DHT22;63419;42.262;12.210;2023-06-04T10:45:38;22.60;99.90
74869;DHT22;63419;42.262;12.210;2023-06-04T10:48:07;22.20;99.90
74869;DHT22;63419;42.262;12.210;2023-06-04T10:50:47;22.40;99.90
74869;DHT22;63419;42.262;12.210;2023-06-04T10:53:15;22.70;99.90
74869;DHT22;63419;42.262;12.210;2023-06-04T10:55:48;22.10;99.90
74869;DHT22;63419;42.262;12.210;2023-06-04T10:58:15;22.30;99.90
74869;DHT22;63419;42.262;12.210;2023-06-04T11:00:45;22.30;99.90
74869;DHT22;63419;42.262;12.210;2023-06-04T11:03:14;22.20;99.90
74869;DHT22;63419;42.262;12.210;2023-06-04T11:05:46;21.90;99.90
74869;DHT22;63419;42.262;12.210;2023-06-04T11:08:14;22.40;99.90
74869;DHT22;63419;42.262;12.210;2023-06-04T11:10:44;22.10;99.90
74869;DHT22;63419;42.262;12.210;2023-06-04T11:13:11;21.90;99.90
74869;DHT22;63419;42.262;12.210;2023-06-04T11:15:43;21.90;99.90
74869;DHT22;63419;42.262;12.210;2023-06-04T11:18:16;22.80;99.90
74869;DHT22;63419;42.262;12.210;2023-06-04T11:20:44;22.90;99.90
74869;DHT22;63419;42.262;12.210;2023-06-04T11:23:13;22.60;99.90
74869;DHT22;63419;42.262;12.210;2023-06-04T11:25:40;22.10;99.90
74869;DHT22;63419;42.262;12.210;2023-06-04T11:28:16;22.00;99.90
74869;DHT22;63419;42.262;12.210;2023-06-04T11:31:01;22.50;99.90
74869;DHT22;63419;42.262;12.210;2023-06-04T11:33:41;23.10;99.90
74869;DHT22;63419;42.262;12.210;2023-06-04T11:36:08;23.40;99.90
74869;DHT22;63419;42.262;12.210;2023-06-04T11:38:36;22.90;99.90
74869;DHT22;63419;42.262;12.210;2023-06-04T11:41:03;22.80;99.90
74869;DHT22;63419;42.262;12.210;2023-06-04T11:43:32;22.90;99.90
74869;DHT22;63419;42.262;12.210;2023-06-04T11:46:05;21.90;99.90
74869;DHT22;63419;42.262;12.210;2023-06-04T11:48:37;22.30;99.90
74869;DHT22;63419;42.262;12.210;2023-06-04T11:51:07;22.20;99.90
74869;DHT22;63419;42.262;12.210;2023-06-04T11:53:37;23.70;99.90
74869;DHT22;63419;42.262;12.210;2023-06-04T11:56:05;24.20;99.90
74869;DHT22;63419;42.262;12.210;2023-06-04T11:58:33;23.80;99.90
74869;DHT22;63419;42.262;12.210;2023-06-04T12:01:00;22.80;99.90
74869;DHT22;63419;42.262;12.210;2023-06-04T12:03:38;23.00;99.90
74869;DHT22;63419;42.262;12.210;2023-06-04T12:06:16;23.00;99.90
74869;DHT22;63419;42.262;12.210;2023-06-04T12:08:51;22.50;99.90
74869;DHT22;63419;42.262;12.210;2023-06-04T12:11:34;22.00;99.90
74869;DHT22;63419;42.262;12.210;2023-06-04T12:14:05;22.80;99.90
74869;DHT22;63419;42.262;12.210;2023-06-04T12:16:36;23.30;99.90
74869;DHT22;63419;42.262;12.210;2023-06-04T12:19:10;21.90;99.90
74869;DHT22;63419;42.262;12.210;2023-06-04T12:21:39;22.50;99.90
74869;DHT22;63419;42.262;12.210;2023-06-04T12:24:10;23.10;99.90
74869;DHT22;63419;42.262;12.210;2023-06-04T12:26:39;22.90;99.90
74869;DHT22;63419;42.262;12.210;2023-06-04T12:29:15;23.00;99.90
74869;DHT22;63419;42.262;12.210;2023-06-04T12:31:44;23.20;99.90
74869;DHT22;63419;42.262;12.210;2023-06-04T12:34:15;22.90;99.90
74869;DHT22;63419;42.262;12.210;2023-06-04T12:36:44;22.40;99.90
74869;DHT22;63419;42.262;12.210;2023-06-04T12:39:11;21.80;99.90
74869;DHT22;63419;42.262;12.210;2023-06-04T12:41:45;22.40;99.90
74869;DHT22;63419;42.262;12.210;2023-06-04T12:44:13;21.70;99.90
74869;DHT22;63419;42.262;12.210;2023-06-04T12:46:40;21.40;99.90
74869;DHT22;63419;42.262;12.210;2023-06-04T12:49:07;21.40;99.90
74869;DHT22;63419;42.262;12.210;2023-06-04T12:51:35;21.50;99.90
74869;DHT22;63419;42.262;12.210;2023-06-04T12:54:03;21.20;99.90
74869;DHT22;63419;42.262;12.210;2023-06-04T12:56:31;21.00;99.90
74869;DHT22;63419;42.262;12.210;2023-06-04T12:58:59;20.90;99.90
74869;DHT22;63419;42.262;12.210;2023-06-04T13:01:26;21.00;99.90
74869;DHT22;63419;42.262;12.210;2023-06-04T13:03:54;21.00;99.90
74869;DHT22;63419;42.262;12.210;2023-06-04T13:06:22;20.90;99.90
74869;DHT22;63419;42.262;12.210;2023-06-04T13:08:50;20.50;99.90
74869;DHT22;63419;42.262;12.210;2023-06-04T13:11:17;20.50;99.90
74869;DHT22;63419;42.262;12.210;2023-06-04T13:13:44;20.60;99.90
74869;DHT22;63419;42.262;12.210;2023-06-04T13:16:12;20.40;99.90
74869;DHT22;63419;42.262;12.210;2023-06-04T13:18:39;20.20;99.90
74869;DHT22;63419;42.262;12.210;2023-06-04T13:21:06;20.20;99.90
74869;DHT22;63419;42.262;12.210;2023-06-04T13:23:34;20.00;99.90
74869;DHT22;63419;42.262;12.210;2023-06-04T13:26:17;20.00;99.90
74869;DHT22;63419;42.262;12.210;2023-06-04T13:28:44;20.00;99.90
74869;DHT22;63419;42.262;12.210;2023-06-04T13:31:12;19.90;99.90
74869;DHT22;63419;42.262;12.210;2023-06-04T13:33:39;20.00;99.90
74869;DHT22;63419;42.262;12.210;2023-06-04T13:36:06;20.30;99.90
74869;DHT22;63419;42.262;12.210;2023-06-04T13:38:34;19.80;99.90
74869;DHT22;63419;42.262;12.210;2023-06-04T13:41:01;19.90;99.90
74869;DHT22;63419;42.262;12.210;2023-06-04T13:43:28;19.80;99.90
74869;DHT22;63419;42.262;12.210;2023-06-04T13:45:56;19.80;99.90
74869;DHT22;63419;42.262;12.210;2023-06-04T13:48:23;19.70;99.90
74869;DHT22;63419;42.262;12.210;2023-06-04T13:50:50;19.80;99.90
74869;DHT22;63419;42.262;12.210;2023-06-04T13:53:18;19.80;99.90
74869;DHT22;63419;42.262;12.210;2023-06-04T13:55:45;19.80;99.90
74869;DHT22;63419;42.262;12.210;2023-06-04T13:58:12;19.50;99.90
74869;DHT22;63419;42.262;12.210;2023-06-04T14:00:41;19.60;99.90
74869;DHT22;63419;42.262;12.210;2023-06-04T14:03:08;19.60;99.90
74869;DHT22;63419;42.262;12.210;2023-06-04T14:05:36;19.60;99.90
74869;DHT22;63419;42.262;12.210;2023-06-04T14:08:03;19.70;99.90
74869;DHT22;63419;42.262;12.210;2023-06-04T14:10:31;19.70;99.90
74869;DHT22;63419;42.262;12.210;2023-06-04T14:12:58;19.40;99.90
74869;DHT22;63419;42.262;12.210;2023-06-04T14:15:25;19.20;99.90
74869;DHT22;63419;42.262;12.210;2023-06-04T14:17:52;19.20;99.90
74869;DHT22;63419;42.262;12.210;2023-06-04T14:20:19;19.10;99.90
74869;DHT22;63419;42.262;12.210;2023-06-04T14:22:47;19.10;99.90
74869;DHT22;63419;42.262;12.210;2023-06-04T14:25:15;19.00;99.90
74869;DHT22;63419;42.262;12.210;2023-06-04T14:27:42;19.20;99.90
74869;DHT22;63419;42.262;12.210;2023-06-04T14:30:11;19.20;99.90
74869;DHT22;63419;42.262;12.210;2023-06-04T14:32:38;19.10;99.90
74869;DHT22;63419;42.262;12.210;2023-06-04T14:35:07;19.10;99.90
74869;DHT22;63419;42.262;12.210;2023-06-04T14:37:35;19.10;99.90
74869;DHT22;63419;42.262;12.210;2023-06-04T14:40:02;19.20;99.90
74869;DHT22;63419;42.262;12.210;2023-06-04T14:42:29;19.20;99.90
74869;DHT22;63419;42.262;12.210;2023-06-04T14:44:57;19.30;99.90
74869;DHT22;63419;42.262;12.210;2023-06-04T14:47:24;19.20;99.90
74869;DHT22;63419;42.262;12.210;2023-06-04T14:49:51;19.10;99.90
74869;DHT22;63419;42.262;12.210;2023-06-04T14:52:19;19.10;99.90
74869;DHT22;63419;42.262;12.210;2023-06-04T14:54:46;19.20;99.90
74869;DHT22;63419;42.262;12.210;2023-06-04T14:57:13;19.30;99.90
74869;DHT22;63419;42.262;12.210;2023-06-04T14:59:41;19.00;99.90
74869;DHT22;63419;42.262;12.210;2023-06-04T15:02:10;19.00;99.90
74869;DHT22;63419;42.262;12.210;2023-06-04T15:04:37;19.20;99.90
74869;DHT22;63419;42.262;12.210;2023-06-04T15:07:09;19.40;99.90
74869;DHT22;63419;42.262;12.210;2023-06-04T15:09:36;19.30;99.90
74869;DHT22;63419;42.262;12.210;2023-06-04T15:12:04;19.20;99.90
74869;DHT22;63419;42.262;12.210;2023-06-04T15:14:31;19.10;99.90
74869;DHT22;63419;42.262;12.210;2023-06-04T15:16:59;19.40;99.90
74869;DHT22;63419;42.262;12.210;2023-06-04T15:19:26;19.50;99.90
74869;DHT22;63419;42.262;12.210;2023-06-04T15:21:53;19.50;99.90
74869;DHT22;63419;42.262;12.210;2023-06-04T15:24:21;19.40;99.90
74869;DHT22;63419;42.262;12.210;2023-06-04T15:26:49;19.30;99.90